Time;durP1;ratioP1;P1;durP2;ratioP2;P2;SDS_P1;SDS_P2;PMS_P1;PMS_P2;Temp;Humidity;BMP_temperature;BMP_pressure;BME280_temperature;BME280_humidity;BME280_pressure;Samples;Min_cycle;Max_cycle;Signal;HPM_P1;HPM_P2
2022/12/16 00:02:21;;;;;;;38.53;28.40;;;;;;;-3.69;100.00;95650.66;5021201;28;20618;-69
2022/12/16 00:04:48;;;;;;;36.47;27.93;;;;;;;-3.66;100.00;95647.81;5015891;28;20881;-70
2022/12/16 00:07:16;;;;;;;38.27;28.60;;;;;;;-3.66;100.00;95642.63;5044253;28;20412;-70
2022/12/16 00:09:44;;;;;;;39.03;29.30;;;;;;;-3.66;100.00;95652.97;4994837;28;20362;-69
2022/12/16 00:12:13;;;;;;;38.80;30.57;;;;;;;-3.74;100.00;95660.59;5044097;28;20198;-71
2022/12/16 00:14:41;;;;;;;39.60;29.20;;;;;;;-3.73;100.00;95659.66;5041502;28;20713;-69
2022/12/16 00:17:08;;;;;;;39.57;28.73;;;;;;;-3.74;100.00;95647.66;5014316;28;20215;-70
2022/12/16 00:19:36;;;;;;;42.73;30.80;;;;;;;-3.74;100.00;95658.00;5042522;28;20773;-69
2022/12/16 00:22:03;;;;;;;38.97;30.40;;;;;;;-3.75;100.00;95664.97;5018992;28;20218;-70
2022/12/16 00:24:31;;;;;;;41.83;29.77;;;;;;;-3.75;100.00;95657.19;5016450;28;20235;-69
2022/12/16 00:26:59;;;;;;;43.53;29.53;;;;;;;-3.73;100.00;95660.47;5022517;28;20290;-70
2022/12/16 00:29:28;;;;;;;40.80;29.97;;;;;;;-3.72;100.00;95643.16;5040864;28;20203;-69
2022/12/16 00:31:56;;;;;;;42.43;30.70;;;;;;;-3.68;100.00;95649.72;5042843;28;20409;-70
2022/12/16 00:34:24;;;;;;;42.90;30.77;;;;;;;-3.69;100.00;95650.66;5019717;28;20226;-69
2022/12/16 00:36:51;;;;;;;44.23;31.33;;;;;;;-3.71;100.00;95643.03;5016393;28;20514;-70
2022/12/16 00:39:19;;;;;;;47.37;33.07;;;;;;;-3.66;100.00;95640.88;5040462;28;20705;-70
2022/12/16 00:41:47;;;;;;;47.53;32.60;;;;;;;-3.75;100.00;95640.84;4996143;28;20729;-70
2022/12/16 00:44:14;;;;;;;45.23;33.70;;;;;;;-3.73;100.00;95637.19;5040528;28;20218;-70
2022/12/16 00:46:43;;;;;;;46.73;32.67;;;;;;;-3.77;100.00;95630.63;5039270;28;20354;-70
2022/12/16 00:49:11;;;;;;;39.47;29.90;;;;;;;-3.81;100.00;95627.47;5016466;28;20449;-70
2022/12/16 00:51:39;;;;;;;46.73;32.83;;;;;;;-3.77;100.00;95625.47;5039239;28;20710;-69
2022/12/16 00:54:06;;;;;;;44.53;30.27;;;;;;;-3.78;100.00;95626.41;5021008;28;20535;-68
2022/12/16 00:56:34;;;;;;;47.10;33.13;;;;;;;-3.75;100.00;95633.06;4989523;28;20219;-69
2022/12/16 00:59:01;;;;;;;44.87;32.23;;;;;;;-3.75;100.00;95631.31;5045387;28;20496;-70
2022/12/16 01:01:29;;;;;;;45.70;31.17;;;;;;;-3.72;100.00;95636.22;5035762;28;20473;-69
2022/12/16 01:03:58;;;;;;;44.73;31.57;;;;;;;-3.73;100.00;95638.94;5041589;28;20297;-71
2022/12/16 01:06:26;;;;;;;43.67;30.90;;;;;;;-3.74;100.00;95645.06;5008221;28;20481;-69
2022/12/16 01:08:53;;;;;;;47.47;31.87;;;;;;;-3.78;100.00;95655.69;5016704;28;20404;-70
2022/12/16 01:11:21;;;;;;;44.50;31.00;;;;;;;-3.81;100.00;95660.28;4994649;28;20579;-69
2022/12/16 01:13:51;;;;;;;45.17;32.57;;;;;;;-3.84;100.00;95665.75;5035893;28;20254;-69
2022/12/16 01:16:19;;;;;;;40.93;30.13;;;;;;;-3.85;100.00;95667.53;5040430;28;20411;-70
2022/12/16 01:18:46;;;;;;;45.67;30.67;;;;;;;-3.82;100.00;95658.66;5034889;28;20464;-69
2022/12/16 01:21:15;;;;;;;46.07;30.63;;;;;;;-3.84;100.00;95653.63;5015247;28;20214;-70
2022/12/16 01:23:43;;;;;;;45.40;33.03;;;;;;;-3.85;100.00;95664.09;5016996;28;20943;-69
2022/12/16 01:26:15;;;;;;;47.57;31.73;;;;;;;-3.83;100.00;95659.59;4991965;28;20218;-70
2022/12/16 01:28:42;;;;;;;44.93;32.53;;;;;;;-3.78;100.00;95662.66;5034768;28;20709;-69
2022/12/16 01:31:11;;;;;;;51.03;32.77;;;;;;;-3.89;100.00;95658.38;5010311;28;20203;-69
2022/12/16 01:33:39;;;;;;;52.17;33.33;;;;;;;-3.91;100.00;95662.88;5019742;28;20291;-70
2022/12/16 01:36:08;;;;;;;47.70;33.50;;;;;;;-3.87;100.00;95664.25;5038446;28;20238;-69
2022/12/16 01:38:37;;;;;;;47.63;32.67;;;;;;;-3.90;100.00;95658.50;5025876;28;20825;-69
2022/12/16 01:41:05;;;;;;;44.40;32.90;;;;;;;-3.96;100.00;95654.69;5041817;28;20203;-70
2022/12/16 01:43:35;;;;;;;44.10;31.97;;;;;;;-3.94;100.00;95656.19;5019202;28;20880;-70
2022/12/16 01:46:07;;;;;;;47.53;31.93;;;;;;;-3.92;100.00;95656.88;5035914;28;21002;-70
2022/12/16 01:48:41;;;;;;;47.73;33.17;;;;;;;-3.94;100.00;95645.84;5013784;28;20551;-69
2022/12/16 01:51:12;;;;;;;53.30;34.43;;;;;;;-3.97;100.00;95651.28;5043272;28;20202;-68
2022/12/16 01:53:42;;;;;;;49.90;34.23;;;;;;;-3.95;100.00;95662.31;5043603;28;20257;-69
2022/12/16 01:56:10;;;;;;;48.07;33.50;;;;;;;-3.95;100.00;95661.50;5045023;28;20285;-68
2022/12/16 01:58:40;;;;;;;49.97;34.83;;;;;;;-3.98;100.00;95659.16;5014169;28;20226;-69
2022/12/16 02:01:08;;;;;;;51.60;32.40;;;;;;;-4.00;100.00;95648.13;5040853;28;20618;-68
2022/12/16 02:03:37;;;;;;;47.17;32.83;;;;;;;-4.01;100.00;95655.06;4989596;28;20726;-68
2022/12/16 02:06:06;;;;;;;44.60;31.83;;;;;;;-4.04;100.00;95657.94;5017686;28;20773;-69
2022/12/16 02:08:35;;;;;;;47.83;33.73;;;;;;;-4.01;100.00;95657.66;5033580;28;20216;-69
2022/12/16 02:11:12;;;;;;;47.30;31.43;;;;;;;-4.01;100.00;95662.00;5012935;28;20410;-70
2022/12/16 02:13:53;;;;;;;48.87;33.40;;;;;;;-4.00;100.00;95664.47;5022416;28;20233;-69
2022/12/16 02:16:25;;;;;;;44.67;31.23;;;;;;;-4.05;100.00;95665.81;5022725;28;20208;-70
2022/12/16 02:18:56;;;;;;;46.83;33.07;;;;;;;-4.13;100.00;95664.69;4975372;28;20326;-69
2022/12/16 02:21:46;;;;;;;43.10;29.57;;;;;;;-4.05;100.00;95665.81;5025370;28;20211;-70
2022/12/16 02:24:48;;;;;;;44.47;29.40;;;;;;;-4.07;100.00;95669.34;5017486;28;20231;-70
2022/12/16 02:27:48;;;;;;;44.80;30.33;;;;;;;-4.05;100.00;95686.50;5024958;28;20214;-69
2022/12/16 02:30:29;;;;;;;38.53;28.50;;;;;;;-4.03;100.00;95679.44;5005887;28;20207;-70
2022/12/16 02:33:03;;;;;;;41.97;30.13;;;;;;;-4.14;100.00;95673.41;4974071;28;21152;-69
2022/12/16 02:35:35;;;;;;;41.00;31.47;;;;;;;-4.10;100.00;95681.75;5026193;28;20493;-70
2022/12/16 02:38:12;;;;;;;43.33;28.63;;;;;;;-4.19;100.00;95674.72;5022241;28;20215;-70
2022/12/16 02:40:43;;;;;;;39.90;29.63;;;;;;;-4.20;100.00;95676.50;5023496;28;20621;-69
2022/12/16 02:43:14;;;;;;;42.83;30.40;;;;;;;-4.19;100.00;95670.38;5029020;28;20934;-69
2022/12/16 02:45:44;;;;;;;43.57;30.97;;;;;;;-4.21;100.00;95669.69;5005310;28;20215;-69
2022/12/16 02:48:11;;;;;;;38.93;27.27;;;;;;;-4.26;100.00;95664.09;5026208;28;20683;-69
2022/12/16 02:50:41;;;;;;;43.10;28.57;;;;;;;-4.19;100.00;95675.56;4974743;28;20219;-69
2022/12/16 02:53:09;;;;;;;43.90;28.97;;;;;;;-4.21;100.00;95685.22;5022339;28;21501;-70
2022/12/16 02:55:44;;;;;;;44.77;29.73;;;;;;;-4.18;100.00;95695.31;5026003;28;20211;-69
2022/12/16 02:58:16;;;;;;;37.23;28.70;;;;;;;-4.21;100.00;95706.72;5024615;28;20582;-70
2022/12/16 03:00:52;;;;;;;39.60;28.73;;;;;;;-4.21;100.00;95701.53;5013175;28;20595;-68
2022/12/16 03:03:24;;;;;;;38.23;28.00;;;;;;;-4.26;100.00;95705.47;5023369;28;20461;-68
2022/12/16 03:05:53;;;;;;;40.07;29.50;;;;;;;-4.23;100.00;95700.84;4977882;28;20265;-69
2022/12/16 03:08:24;;;;;;;44.83;29.30;;;;;;;-4.23;100.00;95708.63;5020781;28;20454;-70
2022/12/16 03:10:55;;;;;;;42.63;28.30;;;;;;;-4.25;100.00;95707.94;5027048;28;20210;-69
2022/12/16 03:13:23;;;;;;;44.50;29.47;;;;;;;-4.22;100.00;95712.84;5029710;28;20223;-70
2022/12/16 03:15:54;;;;;;;41.87;28.57;;;;;;;-4.25;100.00;95714.88;5006231;28;20215;-70
2022/12/16 03:18:22;;;;;;;38.97;27.50;;;;;;;-4.24;100.00;95711.34;5028336;28;20438;-70
2022/12/16 03:20:52;;;;;;;43.00;29.53;;;;;;;-4.22;100.00;95723.19;4978326;28;20234;-69
2022/12/16 03:23:26;;;;;;;44.17;28.47;;;;;;;-4.18;100.00;95725.50;5019478;28;20419;-70
2022/12/16 03:25:57;;;;;;;40.80;29.07;;;;;;;-4.24;100.00;95727.66;5025747;28;20539;-69
2022/12/16 03:28:36;;;;;;;39.50;28.17;;;;;;;-4.24;100.00;95726.88;5024674;28;20455;-70
2022/12/16 03:31:10;;;;;;;38.37;29.20;;;;;;;-4.23;100.00;95728.50;5020877;28;20452;-70
2022/12/16 03:33:39;;;;;;;39.50;29.93;;;;;;;-4.31;100.00;95723.16;5002301;28;20368;-69
2022/12/16 03:36:10;;;;;;;44.87;28.53;;;;;;;-4.23;100.00;95744.03;4947063;28;20886;-69
2022/12/16 03:38:39;;;;;;;40.63;29.70;;;;;;;-4.18;100.00;95744.47;4964604;28;20582;-68
2022/12/16 03:41:07;;;;;;;43.60;30.57;;;;;;;-4.22;100.00;95748.25;5027725;28;20234;-70
2022/12/16 03:43:35;;;;;;;44.73;30.37;;;;;;;-4.24;100.00;95747.56;5024062;28;20235;-70
2022/12/16 03:46:06;;;;;;;38.07;28.67;;;;;;;-4.25;100.00;95749.31;5023649;28;20209;-70
2022/12/16 03:48:34;;;;;;;40.33;29.63;;;;;;;-4.31;100.00;95733.50;4981128;28;21284;-69
2022/12/16 03:51:02;;;;;;;39.80;29.80;;;;;;;-4.36;100.00;95742.47;5021178;28;20200;-68
2022/12/16 03:53:30;;;;;;;44.77;28.67;;;;;;;-4.36;100.00;95736.47;4994520;28;21100;-69
2022/12/16 03:55:58;;;;;;;40.53;29.60;;;;;;;-4.39;100.00;95728.97;4968932;28;20359;-69
2022/12/16 03:58:26;;;;;;;43.93;28.93;;;;;;;-4.40;100.00;95735.06;5009977;28;20749;-70
2022/12/16 04:00:53;;;;;;;42.43;29.10;;;;;;;-4.41;100.00;95728.25;5015613;28;20474;-69
2022/12/16 04:03:23;;;;;;;48.17;30.37;;;;;;;-4.48;100.00;95732.31;5021237;28;20470;-70
2022/12/16 04:05:51;;;;;;;46.53;31.27;;;;;;;-4.54;100.00;95731.03;5019741;28;20468;-70
2022/12/16 04:08:18;;;;;;;41.23;29.57;;;;;;;-4.53;100.00;95730.09;5012800;28;20211;-69
2022/12/16 04:24:35;;;;;;;47.53;30.57;;;;;;;-4.44;100.00;95738.88;5018205;28;20869;-70
